Charleston Heights, South Carolina
Current Conditions -  °F | °C
As of 4:56 PM on Thursday 23 Oct 2014 (Local Time) from KCHS Reporting Station
Clear Clear  
Wind Chill: 22°   Ceiling: Unl
Heat Index: 22°   Visibility: 10mi
Dew Point:   Wind: 7mph
Humidity: 36%   Direction: 320°NW
Pressure: 29.98"   Gusts: NA
Location:  32.8713°N, 80.0388°W
Report Text: KCHS 232056Z 32006KT 10SM CLR 22/06 A2998 RMK AO2 SLP152 T02170061 56013
Loading
Personal Weather Stations






























Interactive Weather Map
Tropical Storm Tracking
New forecast layout! Learn more

10-Day Weather Forecast

Advertisements
Track Severe Weather on mobile